Time;durP1;ratioP1;P1;durP2;ratioP2;P2;SDS_P1;SDS_P2;PMS_P1;PMS_P2;Temp;Humidity;BMP_temperature;BMP_pressure;BME280_temperature;BME280_humidity;BME280_pressure;Samples;Min_cycle;Max_cycle;Signal;HPM_P1;HPM_P2
2022/07/06 00:01:16;;;;;;;5.18;1.77;;;15.00;99.90;;;;;;4975651;28;20034;-58
2022/07/06 00:03:41;;;;;;;6.43;1.65;;;15.00;99.90;;;;;;4976201;28;20022;-59
2022/07/06 00:06:07;;;;;;;4.70;1.70;;;15.00;99.90;;;;;;4990278;28;20519;-59
2022/07/06 00:08:33;;;;;;;13.15;2.53;;;15.00;99.90;;;;;;4994964;28;20110;-58
2022/07/06 00:10:59;;;;;;;7.68;1.85;;;15.00;99.90;;;;;;4979824;28;20039;-60
2022/07/06 00:13:25;;;;;;;5.47;1.63;;;15.10;99.90;;;;;;4975186;28;20033;-60
2022/07/06 00:15:51;;;;;;;7.40;1.83;;;15.10;99.90;;;;;;4974919;28;20101;-59
2022/07/06 00:18:16;;;;;;;6.10;2.05;;;15.10;99.90;;;;;;4985178;28;20396;-57
2022/07/06 00:20:42;;;;;;;7.45;2.00;;;15.10;99.90;;;;;;4994645;28;20072;-58
2022/07/06 00:23:08;;;;;;;6.70;1.52;;;15.20;99.90;;;;;;4994675;28;20628;-58
2022/07/06 00:25:33;;;;;;;5.78;1.50;;;15.10;99.90;;;;;;4976337;28;20389;-56
2022/07/06 00:27:59;;;;;;;5.80;1.80;;;15.10;99.90;;;;;;4974915;28;20030;-60
2022/07/06 00:30:25;;;;;;;9.27;1.88;;;15.00;99.90;;;;;;4974512;28;20165;-57
2022/07/06 00:32:50;;;;;;;4.18;1.60;;;14.90;99.90;;;;;;4975053;28;20042;-56
2022/07/06 00:35:16;;;;;;;3.45;1.45;;;14.80;99.90;;;;;;4974460;28;20370;-59
2022/07/06 00:37:42;;;;;;;8.00;1.73;;;14.70;99.90;;;;;;4974862;28;20027;-58
2022/07/06 00:40:08;;;;;;;10.75;1.70;;;14.70;99.90;;;;;;4973090;28;20106;-57
2022/07/06 00:42:45;;;;;;;4.93;1.52;;;14.60;99.90;;;;;;4974852;28;20397;-60
2022/07/06 00:45:12;;;;;;;5.65;1.90;;;14.50;99.90;;;;;;4974510;28;20436;-58
2022/07/06 00:47:39;;;;;;;6.88;1.58;;;14.40;99.90;;;;;;4974787;28;20310;-59
2022/07/06 00:50:14;;;;;;;11.07;1.75;;;14.30;99.90;;;;;;4973393;28;20037;-59
2022/07/06 00:52:44;;;;;;;5.35;1.80;;;14.30;99.90;;;;;;4974770;28;20019;-59
2022/07/06 00:55:11;;;;;;;10.35;2.13;;;14.20;99.90;;;;;;4975637;28;20051;-60
2022/07/06 00:57:37;;;;;;;4.28;1.70;;;14.10;99.90;;;;;;4984342;28;20027;-60
2022/07/06 01:00:08;;;;;;;6.47;1.92;;;14.10;99.90;;;;;;4974505;28;20089;-58
2022/07/06 01:02:35;;;;;;;4.38;1.90;;;14.10;99.90;;;;;;4975387;28;20034;-59
2022/07/06 01:05:03;;;;;;;7.00;1.60;;;14.00;99.90;;;;;;4974184;28;20544;-59
2022/07/06 01:07:30;;;;;;;8.25;2.05;;;13.90;99.90;;;;;;4974049;28;20038;-55
2022/07/06 01:09:55;;;;;;;3.45;1.73;;;13.90;99.90;;;;;;4973521;28;20041;-60
2022/07/06 01:12:21;;;;;;;6.82;2.10;;;13.80;99.90;;;;;;4974113;28;20419;-59
2022/07/06 01:14:47;;;;;;;5.70;1.83;;;13.70;99.90;;;;;;4973803;28;20455;-60
2022/07/06 01:17:15;;;;;;;5.05;1.75;;;13.70;99.90;;;;;;4987970;28;20030;-59
2022/07/06 01:19:41;;;;;;;8.10;2.20;;;13.60;99.90;;;;;;4993548;28;20475;-59
2022/07/06 01:22:08;;;;;;;6.97;1.83;;;13.50;99.90;;;;;;4993471;28;20034;-57
2022/07/06 01:24:37;;;;;;;8.10;2.20;;;13.50;99.90;;;;;;4980487;28;20069;-58
2022/07/06 01:27:07;;;;;;;11.70;2.47;;;13.40;99.90;;;;;;4973823;28;20496;-58
2022/07/06 01:29:33;;;;;;;7.63;2.42;;;13.40;99.90;;;;;;4974221;28;20038;-58
2022/07/06 01:32:00;;;;;;;7.18;2.20;;;13.30;99.90;;;;;;4980947;28;20053;-58
2022/07/06 01:34:25;;;;;;;3.75;1.75;;;13.30;99.90;;;;;;4993059;28;20032;-57
2022/07/06 01:36:51;;;;;;;7.10;2.00;;;13.20;99.90;;;;;;4992926;28;20411;-58
2022/07/06 01:39:16;;;;;;;6.80;2.17;;;13.20;99.90;;;;;;4976750;28;20027;-60
2022/07/06 01:41:42;;;;;;;3.17;1.60;;;13.10;99.90;;;;;;4973588;28;20019;-57
2022/07/06 01:44:08;;;;;;;11.45;2.35;;;13.00;99.90;;;;;;4982781;28;20105;-58
2022/07/06 01:46:34;;;;;;;6.03;1.92;;;13.00;99.90;;;;;;4992639;28;20485;-57
2022/07/06 01:48:59;;;;;;;6.80;2.33;;;12.90;99.90;;;;;;4992891;28;20033;-59
2022/07/06 01:51:25;;;;;;;3.20;1.83;;;12.90;99.90;;;;;;4993046;28;20026;-59
2022/07/06 01:53:52;;;;;;;6.55;2.20;;;12.90;99.90;;;;;;4973852;28;20158;-59
2022/07/06 01:56:21;;;;;;;6.60;2.08;;;12.80;99.90;;;;;;4972840;28;20045;-59
2022/07/06 01:58:47;;;;;;;6.35;2.05;;;12.80;99.90;;;;;;4989753;28;20480;-59
2022/07/06 02:01:19;;;;;;;6.50;2.15;;;12.80;99.90;;;;;;4992799;28;20038;-58
2022/07/06 02:03:45;;;;;;;5.95;2.17;;;12.80;99.90;;;;;;4977903;28;20069;-58
2022/07/06 02:06:11;;;;;;;4.63;1.75;;;12.80;99.90;;;;;;4972870;28;20046;-58
2022/07/06 02:08:38;;;;;;;4.90;2.20;;;12.70;99.90;;;;;;4973367;28;20030;-57
2022/07/06 02:11:05;;;;;;;5.30;2.30;;;12.70;99.90;;;;;;4973399;28;20054;-58
2022/07/06 02:13:31;;;;;;;8.02;2.20;;;12.70;99.90;;;;;;4973198;28;20461;-57
2022/07/06 02:15:56;;;;;;;8.30;2.80;;;12.60;99.90;;;;;;4972731;28;20106;-58
2022/07/06 02:18:22;;;;;;;6.50;1.95;;;12.60;99.90;;;;;;4971883;28;20121;-57
2022/07/06 02:20:48;;;;;;;4.75;1.92;;;12.50;99.90;;;;;;4973175;28;20022;-58
2022/07/06 02:23:13;;;;;;;11.38;2.00;;;12.50;99.90;;;;;;4973101;28;20023;-58
2022/07/06 02:25:39;;;;;;;5.00;1.92;;;12.50;99.90;;;;;;4972671;28;20026;-59
2022/07/06 02:28:05;;;;;;;7.13;2.10;;;12.50;99.90;;;;;;4972998;28;20062;-56
2022/07/06 02:30:30;;;;;;;7.25;2.45;;;12.40;99.90;;;;;;4972483;28;20027;-58
2022/07/06 02:32:56;;;;;;;6.60;2.35;;;12.40;99.90;;;;;;4971877;28;20047;-59
2022/07/06 02:35:21;;;;;;;4.05;2.10;;;12.40;99.90;;;;;;4972527;28;20023;-57
2022/07/06 02:37:47;;;;;;;12.25;2.55;;;12.40;99.90;;;;;;4972961;28;20023;-58
2022/07/06 02:40:13;;;;;;;6.93;2.40;;;12.40;99.90;;;;;;4973088;28;20027;-59
2022/07/06 02:42:39;;;;;;;7.35;2.63;;;12.30;99.90;;;;;;4972868;28;20031;-57
2022/07/06 02:45:05;;;;;;;10.98;2.35;;;12.30;99.90;;;;;;4971433;28;20089;-59
2022/07/06 02:47:30;;;;;;;7.60;2.95;;;12.30;99.90;;;;;;4972523;28;20058;-58
2022/07/06 02:49:56;;;;;;;7.07;2.40;;;12.20;99.90;;;;;;4973037;28;20050;-58
2022/07/06 02:52:22;;;;;;;8.82;2.20;;;12.10;99.90;;;;;;4976467;28;20575;-60
2022/07/06 02:54:48;;;;;;;6.45;2.20;;;12.10;99.90;;;;;;4983055;28;20038;-58
2022/07/06 02:57:15;;;;;;;4.50;2.13;;;12.10;99.90;;;;;;4972531;28;20101;-57
2022/07/06 02:59:41;;;;;;;5.00;2.03;;;12.00;99.90;;;;;;4971978;28;20027;-55
2022/07/06 03:02:07;;;;;;;6.45;2.17;;;12.10;99.90;;;;;;4975636;28;20029;-56
2022/07/06 03:04:33;;;;;;;8.38;2.33;;;12.00;99.90;;;;;;4981271;28;20053;-54
2022/07/06 03:06:59;;;;;;;6.78;2.13;;;12.00;99.90;;;;;;4992199;28;20034;-59
2022/07/06 03:09:24;;;;;;;8.30;2.13;;;12.00;99.90;;;;;;4990862;28;20033;-60
2022/07/06 03:11:50;;;;;;;6.25;1.90;;;12.00;99.90;;;;;;4991981;28;20543;-60
2022/07/06 03:14:16;;;;;;;4.55;1.88;;;12.00;99.90;;;;;;4982783;28;20031;-58
2022/07/06 03:16:41;;;;;;;7.15;1.73;;;12.00;99.90;;;;;;4972162;28;20401;-59
2022/07/06 03:19:07;;;;;;;8.52;2.38;;;11.90;99.90;;;;;;4972661;28;20483;-57
2022/07/06 03:21:33;;;;;;;6.60;2.17;;;11.90;99.90;;;;;;4972643;28;20041;-59
2022/07/06 03:23:58;;;;;;;7.40;2.40;;;11.90;99.90;;;;;;4972732;28;20038;-57
2022/07/06 03:26:24;;;;;;;6.35;2.65;;;11.90;99.90;;;;;;4972047;28;20470;-58
2022/07/06 03:28:50;;;;;;;6.00;2.05;;;11.90;99.90;;;;;;4971733;28;20126;-56
2022/07/06 03:31:15;;;;;;;7.15;2.45;;;11.90;99.90;;;;;;4971215;28;20081;-56
2022/07/06 03:33:41;;;;;;;12.57;2.50;;;11.80;99.90;;;;;;4972553;28;20054;-59
2022/07/06 03:36:07;;;;;;;7.53;2.42;;;11.80;99.90;;;;;;4974362;28;20568;-60
2022/07/06 03:38:33;;;;;;;4.15;2.15;;;11.80;99.90;;;;;;4975935;28;20033;-56
2022/07/06 03:40:59;;;;;;;5.55;2.38;;;11.80;99.90;;;;;;4975987;28;20033;-60
2022/07/06 03:43:25;;;;;;;5.43;2.38;;;11.80;99.90;;;;;;4977307;28;20035;-59
2022/07/06 03:45:50;;;;;;;6.40;2.35;;;11.80;99.90;;;;;;4975505;28;20511;-58
2022/07/06 03:48:16;;;;;;;6.68;2.30;;;11.80;99.90;;;;;;4975844;28;20022;-60
2022/07/06 03:50:41;;;;;;;6.78;3.20;;;11.80;99.90;;;;;;4975766;28;20507;-58
2022/07/06 03:53:07;;;;;;;6.82;2.33;;;11.80;99.90;;;;;;4975699;28;20038;-57
2022/07/06 03:55:33;;;;;;;7.30;2.78;;;11.80;99.90;;;;;;4975758;28;20105;-58
2022/07/06 03:57:58;;;;;;;11.35;2.88;;;11.90;99.90;;;;;;4980422;28;20520;-59
2022/07/06 04:00:24;;;;;;;6.57;2.17;;;11.90;99.90;;;;;;4975455;28;20037;-60
2022/07/06 04:02:50;;;;;;;8.40;2.85;;;11.90;99.90;;;;;;4975807;28;20053;-58
2022/07/06 04:05:17;;;;;;;8.25;2.92;;;11.80;99.90;;;;;;4975146;28;20110;-57
2022/07/06 04:07:43;;;;;;;15.43;2.72;;;11.90;99.90;;;;;;4975251;28;20031;-58
2022/07/06 04:10:08;;;;;;;11.32;3.67;;;11.90;99.90;;;;;;4975765;28;20109;-58
2022/07/06 04:12:43;;;;;;;7.10;2.80;;;11.90;99.90;;;;;;4974302;28;20629;-58
2022/07/06 04:15:10;;;;;;;6.28;3.00;;;12.00;99.90;;;;;;4975073;28;20518;-59
2022/07/06 04:17:55;;;;;;;13.23;2.70;;;12.00;99.90;;;;;;4975137;28;20114;-57
2022/07/06 04:20:22;;;;;;;7.68;3.10;;;12.10;99.90;;;;;;4975437;28;20085;-58
2022/07/06 04:22:49;;;;;;;7.30;3.30;;;12.10;99.90;;;;;;4975178;28;20023;-58
2022/07/06 04:25:14;;;;;;;5.82;3.10;;;12.20;99.90;;;;;;4973860;28;20125;-57
2022/07/06 04:27:40;;;;;;;7.28;3.20;;;12.20;99.90;;;;;;4974804;28;20460;-58
2022/07/06 04:30:07;;;;;;;8.60;3.22;;;12.30;99.90;;;;;;4974936;28;20050;-59
2022/07/06 04:32:34;;;;;;;5.63;3.33;;;12.30;99.90;;;;;;4974679;28;20497;-57
2022/07/06 04:34:59;;;;;;;8.38;3.30;;;12.40;99.90;;;;;;4974658;28;20035;-57
2022/07/06 04:37:25;;;;;;;15.00;3.33;;;12.40;99.90;;;;;;4979010;28;20041;-57
2022/07/06 04:39:50;;;;;;;5.18;2.80;;;12.50;99.90;;;;;;4989004;28;20033;-58
2022/07/06 04:42:16;;;;;;;10.05;3.08;;;12.50;99.90;;;;;;4974531;28;20027;-59
2022/07/06 04:44:42;;;;;;;6.80;2.60;;;12.60;99.90;;;;;;4974425;28;20038;-54
2022/07/06 04:47:07;;;;;;;7.20;2.55;;;12.70;99.90;;;;;;4974039;28;20114;-57
2022/07/06 04:49:33;;;;;;;6.47;3.53;;;12.90;99.90;;;;;;4974662;28;20086;-59
2022/07/06 04:51:59;;;;;;;7.28;2.90;;;13.40;99.90;;;;;;4974772;28;20093;-59
2022/07/06 04:54:24;;;;;;;8.68;3.28;;;14.50;99.90;;;;;;4973512;28;20026;-59
2022/07/06 04:56:50;;;;;;;9.77;2.92;;;15.80;99.90;;;;;;4973885;28;20489;-58
2022/07/06 04:59:16;;;;;;;4.57;2.78;;;16.80;99.90;;;;;;4973097;28;20030;-58
2022/07/06 05:01:41;;;;;;;6.18;3.63;;;18.20;98.20;;;;;;4973829;28;20022;-59
2022/07/06 05:04:07;;;;;;;7.80;3.28;;;19.10;96.10;;;;;;4978283;28;20042;-59
2022/07/06 05:06:33;;;;;;;4.85;3.15;;;20.00;93.20;;;;;;4973875;28;20033;-59
2022/07/06 05:08:59;;;;;;;10.02;2.50;;;20.80;91.20;;;;;;4974243;28;20034;-57
2022/07/06 05:11:26;;;;;;;9.10;2.33;;;21.00;89.90;;;;;;4974520;28;20042;-57
2022/07/06 05:13:51;;;;;;;4.97;2.20;;;22.10;87.00;;;;;;4974313;28;20493;-59
2022/07/06 05:16:17;;;;;;;5.85;2.40;;;21.90;85.10;;;;;;4974896;28;20031;-58
2022/07/06 05:18:43;;;;;;;7.20;2.33;;;22.30;83.50;;;;;;4973978;28;20022;-59
2022/07/06 05:21:08;;;;;;;3.88;1.95;;;22.30;82.60;;;;;;4974070;28;20038;-60
2022/07/06 05:23:34;;;;;;;3.50;2.20;;;22.80;81.50;;;;;;4974035;28;20027;-58
2022/07/06 05:26:00;;;;;;;5.43;2.45;;;23.00;81.60;;;;;;4973898;28;20054;-59
2022/07/06 05:28:25;;;;;;;3.45;1.90;;;23.50;77.40;;;;;;4974035;28;20547;-60
2022/07/06 05:30:51;;;;;;;5.10;2.50;;;23.40;78.00;;;;;;4973499;28;20045;-62
2022/07/06 05:33:17;;;;;;;4.10;2.47;;;23.60;77.00;;;;;;4974444;28;20030;-61
2022/07/06 05:35:42;;;;;;;4.63;1.80;;;24.90;74.50;;;;;;4974333;28;20110;-62
2022/07/06 05:38:08;;;;;;;4.50;1.95;;;25.10;72.50;;;;;;4973691;28;20029;-61
2022/07/06 05:40:34;;;;;;;4.70;2.38;;;25.50;70.60;;;;;;4973536;28;20018;-61
2022/07/06 05:42:59;;;;;;;8.05;2.17;;;25.20;71.30;;;;;;4980649;28;20041;-62
2022/07/06 05:45:25;;;;;;;4.05;2.03;;;25.60;70.40;;;;;;4983822;28;20023;-61
2022/07/06 05:50:35;;;;;;;6.13;2.15;;;25.60;69.80;;;;;;4993011;28;20038;-61
2022/07/06 05:53:02;;;;;;;5.53;2.13;;;27.20;68.70;;;;;;4992799;28;20408;-61
2022/07/06 05:55:29;;;;;;;2.85;1.48;;;26.40;67.30;;;;;;4992366;28;20112;-61
2022/07/06 05:57:55;;;;;;;4.68;2.22;;;25.40;68.30;;;;;;4992562;28;20030;-61
2022/07/06 06:00:25;;;;;;;5.45;1.90;;;24.70;69.80;;;;;;4978104;28;20042;-60
2022/07/06 06:02:51;;;;;;;3.83;2.00;;;23.80;71.10;;;;;;4994678;23;20063;-60
2022/07/06 06:05:17;;;;;;;4.53;1.90;;;23.10;74.20;;;;;;4972710;28;20555;-59
2022/07/06 06:07:43;;;;;;;6.93;2.08;;;23.30;74.50;;;;;;4971895;28;20022;-59
2022/07/06 06:10:11;;;;;;;5.07;1.95;;;23.80;73.40;;;;;;4973092;28;20027;-60
2022/07/06 06:12:38;;;;;;;8.32;2.42;;;24.10;73.50;;;;;;4973149;28;20085;-60
2022/07/06 06:15:04;;;;;;;5.53;2.25;;;23.90;72.30;;;;;;4972938;28;20039;-59
2022/07/06 06:17:30;;;;;;;6.22;2.10;;;24.20;72.80;;;;;;4955328;28;20031;-55
2022/07/06 06:19:57;;;;;;;7.53;3.05;;;24.70;70.60;;;;;;4954088;28;20106;-56
2022/07/06 06:22:22;;;;;;;6.78;2.28;;;25.20;71.10;;;;;;4960354;28;20027;-59
2022/07/06 06:24:48;;;;;;;6.53;2.50;;;25.50;69.10;;;;;;4966403;28;20104;-58
2022/07/06 06:27:14;;;;;;;7.18;2.97;;;26.00;69.10;;;;;;4960470;28;20512;-59
2022/07/06 06:29:41;;;;;;;6.32;1.83;;;26.60;66.70;;;;;;4953807;29;20396;-57
2022/07/06 06:32:07;;;;;;;6.45;2.08;;;27.30;66.40;;;;;;4953430;28;20028;-57
2022/07/06 06:34:33;;;;;;;4.43;2.10;;;27.50;64.60;;;;;;4953418;28;20050;-57
2022/07/06 06:36:58;;;;;;;7.80;2.53;;;27.40;64.30;;;;;;4960443;28;20027;-58
2022/07/06 06:39:24;;;;;;;3.25;1.65;;;27.20;65.20;;;;;;4971379;28;20516;-58
2022/07/06 06:41:50;;;;;;;4.53;1.60;;;26.90;64.70;;;;;;4954201;28;20031;-57
2022/07/06 06:44:15;;;;;;;5.45;1.65;;;25.70;65.60;;;;;;4953565;29;20485;-58
2022/07/06 06:46:41;;;;;;;5.82;1.77;;;25.10;67.50;;;;;;4953283;29;20031;-57
2022/07/06 06:49:07;;;;;;;8.45;1.67;;;24.80;68.80;;;;;;4952406;29;20031;-57
2022/07/06 06:51:33;;;;;;;8.23;1.58;;;24.40;69.40;;;;;;4964203;28;20022;-56
2022/07/06 06:53:59;;;;;;;4.60;1.63;;;23.90;71.40;;;;;;4972847;28;20106;-58
2022/07/06 06:56:25;;;;;;;4.60;1.70;;;24.70;70.10;;;;;;4966992;28;20114;-59
2022/07/06 06:58:50;;;;;;;4.40;1.52;;;24.50;69.00;;;;;;4953405;29;20522;-60
2022/07/06 07:01:16;;;;;;;6.07;1.55;;;23.70;70.20;;;;;;4953307;29;20493;-58
2022/07/06 07:03:41;;;;;;;6.05;1.40;;;22.70;72.30;;;;;;4952517;29;20121;-59
2022/07/06 07:06:07;;;;;;;8.68;1.58;;;22.00;74.60;;;;;;4959779;28;20039;-58
2022/07/06 07:08:33;;;;;;;5.70;1.80;;;21.40;77.00;;;;;;4956234;28;20105;-58
2022/07/06 07:10:58;;;;;;;6.22;1.73;;;20.60;79.70;;;;;;4955652;28;20101;-58
2022/07/06 07:13:24;;;;;;;5.10;1.60;;;20.60;80.40;;;;;;4957020;28;20059;-58
2022/07/06 07:15:49;;;;;;;9.10;1.58;;;20.30;81.50;;;;;;4956752;29;20031;-58
2022/07/06 07:18:15;;;;;;;7.85;1.65;;;20.10;81.10;;;;;;4955850;28;20027;-57
2022/07/06 07:20:41;;;;;;;6.00;1.58;;;19.70;82.70;;;;;;4964606;28;20038;-59
2022/07/06 07:23:06;;;;;;;5.82;2.28;;;19.60;84.30;;;;;;4961959;28;20031;-60
2022/07/06 07:25:32;;;;;;;3.10;1.33;;;19.50;84.30;;;;;;4956396;29;20046;-59
2022/07/06 07:27:58;;;;;;;7.40;1.80;;;19.60;85.10;;;;;;4956810;29;20042;-58
2022/07/06 07:30:23;;;;;;;8.25;1.95;;;19.60;84.70;;;;;;4956523;29;20031;-59
2022/07/06 07:32:49;;;;;;;5.45;1.45;;;21.00;83.70;;;;;;4956724;28;20389;-60
2022/07/06 07:35:15;;;;;;;8.27;1.65;;;22.30;77.70;;;;;;4963684;28;20118;-60
2022/07/06 07:37:40;;;;;;;6.75;1.10;;;22.90;74.90;;;;;;4959994;28;20054;-60
2022/07/06 07:40:06;;;;;;;2.67;0.90;;;22.90;74.30;;;;;;4956630;29;20050;-58
2022/07/06 07:42:32;;;;;;;11.68;1.42;;;22.70;74.90;;;;;;4956985;28;20363;-60
2022/07/06 07:44:58;;;;;;;8.48;1.10;;;22.60;74.50;;;;;;4956562;28;20126;-59
2022/07/06 07:47:23;;;;;;;6.13;1.85;;;22.90;76.40;;;;;;4957011;28;20027;-59
2022/07/06 07:49:49;;;;;;;4.63;1.25;;;22.40;73.30;;;;;;4967472;28;20057;-59
2022/07/06 07:52:15;;;;;;;4.10;1.25;;;22.20;75.50;;;;;;4965727;28;20038;-59
2022/07/06 07:54:41;;;;;;;3.33;1.08;;;21.60;75.20;;;;;;4968046;28;20038;-59
2022/07/06 07:57:06;;;;;;;4.57;1.23;;;21.10;78.10;;;;;;4975481;28;20077;-59
2022/07/06 07:59:32;;;;;;;4.57;1.42;;;20.40;79.10;;;;;;4975815;28;20456;-60
2022/07/06 08:01:58;;;;;;;6.88;1.30;;;20.40;82.30;;;;;;4967738;28;20094;-60
2022/07/06 08:04:23;;;;;;;3.58;1.10;;;22.00;79.20;;;;;;4964911;28;20118;-60
2022/07/06 08:06:49;;;;;;;4.45;1.00;;;22.80;72.10;;;;;;4955784;29;20508;-60
2022/07/06 08:09:16;;;;;;;3.90;1.30;;;22.50;71.90;;;;;;4956538;29;20036;-59
2022/07/06 08:11:42;;;;;;;4.57;1.05;;;21.70;74.60;;;;;;4956003;28;20032;-59
2022/07/06 08:14:08;;;;;;;5.38;1.05;;;21.50;75.60;;;;;;4956138;28;20063;-58
2022/07/06 08:16:34;;;;;;;4.82;1.10;;;21.10;76.00;;;;;;4954403;28;20031;-58
2022/07/06 08:18:59;;;;;;;5.20;0.90;;;20.90;78.50;;;;;;4964264;28;20038;-59
2022/07/06 08:21:25;;;;;;;2.80;1.00;;;21.90;75.50;;;;;;4954810;28;20094;-58
2022/07/06 08:23:52;;;;;;;2.70;1.15;;;23.40;73.50;;;;;;4955712;28;20396;-58
2022/07/06 08:26:17;;;;;;;8.43;1.25;;;23.10;70.20;;;;;;4955583;28;20043;-57
2022/07/06 08:28:43;;;;;;;5.68;1.05;;;23.50;69.50;;;;;;4955519;28;20078;-59
2022/07/06 08:31:09;;;;;;;5.63;1.00;;;24.00;67.80;;;;;;4954248;28;20054;-58
2022/07/06 08:33:34;;;;;;;3.95;1.00;;;24.00;70.00;;;;;;4966545;28;20102;-58
2022/07/06 08:36:00;;;;;;;3.95;0.80;;;23.80;69.60;;;;;;4974598;28;20031;-58
2022/07/06 08:38:26;;;;;;;3.60;1.10;;;23.20;69.20;;;;;;4974802;28;20033;-58
2022/07/06 08:40:52;;;;;;;2.45;0.90;;;22.80;71.80;;;;;;4974752;28;20027;-56
2022/07/06 08:43:17;;;;;;;5.03;1.17;;;22.30;71.80;;;;;;4966966;28;20191;-60
2022/07/06 08:45:45;;;;;;;2.03;0.90;;;21.90;73.40;;;;;;4968003;28;20119;-58
2022/07/06 08:48:12;;;;;;;3.60;1.05;;;21.50;72.80;;;;;;4974668;28;20031;-59
2022/07/06 08:50:38;;;;;;;2.13;1.10;;;21.00;75.20;;;;;;4974697;28;20027;-59
2022/07/06 08:53:04;;;;;;;2.72;1.00;;;20.50;75.70;;;;;;4974590;28;20523;-59
2022/07/06 08:55:31;;;;;;;3.45;1.55;;;20.40;77.50;;;;;;4974617;28;20034;-57
2022/07/06 08:57:57;;;;;;;4.70;1.55;;;20.20;78.80;;;;;;4958057;28;20039;-58
2022/07/06 09:00:24;;;;;;;3.80;1.80;;;19.80;79.90;;;;;;4964753;28;20023;-58
2022/07/06 09:02:53;;;;;;;4.68;1.50;;;19.70;81.50;;;;;;4962418;28;20066;-59
2022/07/06 09:05:21;;;;;;;2.63;1.15;;;19.60;82.60;;;;;;4954725;28;20485;-59
2022/07/06 09:07:50;;;;;;;3.80;1.35;;;19.50;84.70;;;;;;4954853;28;20039;-57
2022/07/06 09:10:18;;;;;;;5.53;1.88;;;19.40;83.50;;;;;;4954990;28;20401;-58
2022/07/06 09:12:44;;;;;;;5.07;1.45;;;19.50;84.20;;;;;;4958234;28;20034;-59
2022/07/06 09:15:10;;;;;;;4.95;1.20;;;19.90;82.80;;;;;;4966065;28;20038;-58
2022/07/06 09:17:41;;;;;;;4.85;1.38;;;20.00;80.10;;;;;;4954923;28;20497;-57
2022/07/06 09:20:12;;;;;;;6.63;1.63;;;20.10;81.40;;;;;;4954758;28;20034;-58
2022/07/06 09:22:39;;;;;;;5.13;1.40;;;19.90;81.90;;;;;;4955239;28;20027;-56
2022/07/06 09:25:09;;;;;;;2.63;1.00;;;20.30;79.50;;;;;;4954116;28;20082;-58
2022/07/06 09:27:47;;;;;;;3.22;1.20;;;20.60;80.30;;;;;;4956708;28;20109;-59
2022/07/06 09:30:14;;;;;;;4.57;1.30;;;21.10;75.60;;;;;;4966006;28;20509;-58
2022/07/06 09:32:45;;;;;;;2.47;0.70;;;21.70;70.50;;;;;;4974080;28;20057;-58
2022/07/06 09:35:26;;;;;;;5.70;1.20;;;22.20;71.00;;;;;;4973623;28;20062;-58
2022/07/06 09:38:07;;;;;;;2.60;0.70;;;23.00;70.00;;;;;;4974236;28;20037;-57
2022/07/06 09:40:42;;;;;;;2.10;0.90;;;24.00;69.00;;;;;;4970612;28;20389;-59
2022/07/06 09:43:18;;;;;;;1.90;0.73;;;25.10;67.20;;;;;;4960233;28;20031;-58
2022/07/06 09:45:52;;;;;;;2.63;0.95;;;25.40;65.10;;;;;;4962284;28;20417;-59
2022/07/06 09:48:27;;;;;;;3.20;1.05;;;25.20;65.30;;;;;;4954446;28;20147;-57
2022/07/06 09:51:03;;;;;;;6.38;0.98;;;24.40;65.80;;;;;;4954662;28;20523;-60
2022/07/06 09:53:29;;;;;;;3.30;1.10;;;23.40;67.60;;;;;;4954315;28;20114;-59
2022/07/06 09:55:57;;;;;;;6.22;1.35;;;22.60;68.20;;;;;;4953853;28;20118;-59
2022/07/06 09:58:24;;;;;;;3.38;0.82;;;22.30;69.50;;;;;;4960799;28;20023;-58
2022/07/06 10:00:51;;;;;;;3.78;0.82;;;22.70;69.50;;;;;;4967643;28;20034;-57
2022/07/06 10:03:17;;;;;;;1.67;0.70;;;23.90;67.70;;;;;;4973545;28;20038;-59
2022/07/06 10:05:47;;;;;;;2.30;0.70;;;25.00;63.90;;;;;;4973120;28;20031;-56
2022/07/06 10:08:14;;;;;;;8.00;1.30;;;25.10;63.70;;;;;;4973636;28;20034;-58
2022/07/06 10:10:41;;;;;;;2.63;0.95;;;24.20;64.20;;;;;;4973936;28;20039;-58
2022/07/06 10:13:09;;;;;;;3.40;0.80;;;23.80;66.80;;;;;;4956926;28;20039;-58
2022/07/06 10:15:36;;;;;;;3.03;1.02;;;23.60;63.30;;;;;;4961181;28;20066;-57
2022/07/06 10:18:05;;;;;;;2.13;0.68;;;23.30;60.50;;;;;;4952807;28;20027;-57
2022/07/06 10:20:33;;;;;;;2.88;0.77;;;23.00;64.00;;;;;;4954560;28;20051;-57
2022/07/06 10:23:00;;;;;;;2.33;0.80;;;23.00;64.70;;;;;;4953992;28;20023;-58
2022/07/06 10:25:26;;;;;;;9.85;1.77;;;22.90;64.90;;;;;;4953668;28;20043;-57
2022/07/06 10:27:53;;;;;;;4.90;1.15;;;22.70;69.00;;;;;;4960652;28;20038;-56
2022/07/06 10:30:20;;;;;;;2.55;1.10;;;23.20;69.00;;;;;;4970545;28;20046;-58
2022/07/06 10:32:52;;;;;;;4.50;1.30;;;23.60;69.80;;;;;;4972990;28;20034;-58
2022/07/06 10:35:19;;;;;;;3.88;1.10;;;23.60;70.00;;;;;;4964804;28;20035;-58
2022/07/06 10:37:45;;;;;;;7.40;1.50;;;23.50;70.30;;;;;;4954060;28;20023;-58
2022/07/06 10:43:02;;;;;;;2.35;0.93;;;24.20;70.20;;;;;;4964141;28;20575;-57
2022/07/06 10:45:27;;;;;;;3.60;1.48;;;24.70;67.20;;;;;;4957606;28;20031;-59
2022/07/06 10:48:17;;;;;;;3.08;1.10;;;25.00;67.00;;;;;;4957617;29;20027;-59
2022/07/06 10:50:45;;;;;;;9.80;1.13;;;24.90;67.00;;;;;;4957851;28;20042;-58
2022/07/06 10:53:12;;;;;;;4.20;0.93;;;25.00;67.20;;;;;;4956077;28;20042;-57
2022/07/06 10:55:40;;;;;;;7.93;0.73;;;24.60;66.90;;;;;;4966347;28;20031;-60
2022/07/06 10:58:06;;;;;;;3.97;0.85;;;25.00;66.90;;;;;;4962776;28;20036;-59
2022/07/06 11:00:52;;;;;;;7.28;1.00;;;24.60;67.10;;;;;;4968055;28;20023;-59
2022/07/06 11:03:32;;;;;;;3.00;0.80;;;24.80;68.00;;;;;;4960478;28;20559;-59
2022/07/06 11:05:59;;;;;;;5.97;1.15;;;25.00;66.00;;;;;;4957023;28;20058;-59
2022/07/06 11:08:53;;;;;;;3.63;1.15;;;24.30;67.30;;;;;;4957184;28;20028;-59
2022/07/06 11:11:21;;;;;;;;;;;23.70;68.30;;;;;;4957517;29;20031;-58
2022/07/06 11:13:49;;;;;;;2.05;1.05;;;23.50;68.80;;;;;;4960785;28;19910;-59
2022/07/06 11:16:16;;;;;;;4.18;0.98;;;23.40;67.60;;;;;;4967841;28;20035;-58
2022/07/06 11:18:49;;;;;;;3.30;1.00;;;23.70;67.20;;;;;;4976815;28;20080;-58
2022/07/06 11:21:19;;;;;;;20.52;2.40;;;23.20;68.00;;;;;;4956534;29;20023;-58
2022/07/06 11:23:49;;;;;;;3.13;1.23;;;23.50;68.40;;;;;;4956978;28;20098;-58
2022/07/06 11:26:16;;;;;;;2.30;0.70;;;23.50;68.00;;;;;;4956713;28;20059;-57
2022/07/06 11:28:44;;;;;;;1.73;0.90;;;24.00;66.90;;;;;;4963536;28;20023;-59
2022/07/06 11:31:11;;;;;;;3.75;0.95;;;24.30;65.40;;;;;;4972809;28;20440;-59
2022/07/06 11:33:37;;;;;;;5.40;1.00;;;24.50;64.50;;;;;;4976542;28;20038;-59
2022/07/06 11:36:14;;;;;;;2.80;0.80;;;24.40;63.10;;;;;;4963822;28;20437;-60
2022/07/06 11:38:41;;;;;;;2.55;0.60;;;24.50;64.00;;;;;;4959082;28;20030;-59
2022/07/06 11:41:07;;;;;;;2.35;0.80;;;24.30;64.60;;;;;;4966574;28;20118;-59
2022/07/06 11:43:32;;;;;;;2.63;0.73;;;24.20;64.00;;;;;;4975972;28;20496;-59
2022/07/06 11:45:58;;;;;;;3.20;0.80;;;24.30;62.50;;;;;;4965893;28;20597;-59
2022/07/06 11:48:24;;;;;;;3.95;0.80;;;23.80;63.10;;;;;;4957217;28;20118;-59
2022/07/06 11:51:03;;;;;;;4.03;0.90;;;23.50;66.90;;;;;;4964413;28;20055;-58
2022/07/06 11:53:29;;;;;;;4.65;0.95;;;23.40;65.30;;;;;;4974853;28;20026;-59
2022/07/06 11:55:55;;;;;;;2.20;0.90;;;23.40;64.20;;;;;;4974916;28;20545;-60
2022/07/06 11:58:22;;;;;;;1.92;0.93;;;22.90;63.70;;;;;;4974004;28;20027;-59
2022/07/06 12:01:08;;;;;;;5.50;1.15;;;23.10;65.80;;;;;;4954099;28;20031;-57
2022/07/06 12:03:34;;;;;;;3.63;0.90;;;23.20;67.60;;;;;;5013622;23;20039;-61
2022/07/06 12:06:12;;;;;;;4.78;1.00;;;23.20;64.40;;;;;;4966626;28;20023;-59
2022/07/06 12:08:59;;;;;;;2.15;0.65;;;23.80;63.60;;;;;;4969794;28;20154;-59
2022/07/06 12:11:29;;;;;;;4.95;1.60;;;23.70;63.60;;;;;;4961871;28;20105;-61
2022/07/06 12:13:57;;;;;;;2.95;0.77;;;23.60;64.00;;;;;;4956263;28;20027;-61
2022/07/06 12:16:30;;;;;;;1.52;0.85;;;23.40;64.70;;;;;;4956430;28;20493;-60
2022/07/06 12:18:56;;;;;;;3.17;0.88;;;23.90;65.50;;;;;;4965808;28;20113;-61
2022/07/06 12:21:22;;;;;;;5.40;0.90;;;24.40;63.80;;;;;;4956486;28;20067;-58
2022/07/06 12:23:50;;;;;;;4.53;0.77;;;24.60;63.10;;;;;;4955987;28;20031;-60
2022/07/06 12:26:19;;;;;;;4.25;1.15;;;24.90;61.80;;;;;;4955341;28;20023;-60
2022/07/06 12:28:58;;;;;;;5.30;0.95;;;24.40;60.90;;;;;;4954604;28;20035;-61
2022/07/06 12:31:33;;;;;;;4.35;0.93;;;24.40;62.50;;;;;;4962523;28;20039;-62
2022/07/06 12:33:59;;;;;;;8.25;1.17;;;24.10;63.20;;;;;;4962496;28;20102;-62
2022/07/06 12:36:25;;;;;;;4.93;1.33;;;23.60;64.30;;;;;;4972951;28;20493;-61
2022/07/06 12:38:50;;;;;;;2.85;1.25;;;22.60;64.90;;;;;;4974987;28;20023;-59
2022/07/06 12:41:31;;;;;;;2.83;1.17;;;22.60;65.80;;;;;;4974644;28;20019;-61
2022/07/06 12:44:03;;;;;;;2.35;1.60;;;22.60;64.80;;;;;;4936476;29;20059;-59
2022/07/06 12:46:36;;;;;;;3.88;1.40;;;22.50;65.70;;;;;;4945229;28;20034;-59
2022/07/06 12:49:33;;;;;;;3.97;1.17;;;22.60;65.40;;;;;;4965247;28;20031;-57
2022/07/06 12:52:00;;;;;;;5.00;1.77;;;22.70;65.40;;;;;;4955715;28;20401;-59